Time;durP1;ratioP1;P1;durP2;ratioP2;P2;SDS_P1;SDS_P2;PMS_P1;PMS_P2;Temp;Humidity;BMP_temperature;BMP_pressure;BME280_temperature;BME280_humidity;BME280_pressure;Samples;Min_cycle;Max_cycle;Signal;HPM_P1;HPM_P2
2021/10/12 00:00:50;;;;;;;8.77;6.10;;;5.50;99.90;;;;;;5029096;28;20643;-72
2021/10/12 00:03:15;;;;;;;10.35;5.50;;;5.50;99.90;;;;;;5029269;28;20178;-73
2021/10/12 00:05:42;;;;;;;10.25;5.43;;;5.50;99.90;;;;;;5011256;28;20174;-72
2021/10/12 00:08:08;;;;;;;9.10;5.30;;;5.40;99.90;;;;;;5019051;28;20188;-72
2021/10/12 00:10:34;;;;;;;14.63;5.20;;;5.40;99.90;;;;;;5030857;28;20185;-72
2021/10/12 00:13:00;;;;;;;10.82;5.45;;;5.40;99.90;;;;;;5048675;28;20243;-71
2021/10/12 00:15:26;;;;;;;8.02;4.25;;;5.50;99.90;;;;;;5030696;28;20205;-71
2021/10/12 00:17:52;;;;;;;8.98;4.68;;;5.60;99.90;;;;;;5048267;28;20192;-71
2021/10/12 00:20:18;;;;;;;9.13;5.25;;;5.70;99.90;;;;;;5030715;28;20173;-72
2021/10/12 00:22:44;;;;;;;10.30;5.53;;;5.70;99.90;;;;;;5048542;28;20228;-71
2021/10/12 00:25:10;;;;;;;10.40;5.45;;;5.50;99.90;;;;;;5030703;28;20180;-72
2021/10/12 00:27:35;;;;;;;10.15;4.75;;;5.50;99.90;;;;;;5030472;28;20209;-71
2021/10/12 00:30:04;;;;;;;6.05;4.40;;;5.40;99.90;;;;;;5048470;28;20158;-71
2021/10/12 00:32:30;;;;;;;9.27;5.00;;;5.40;99.90;;;;;;5030577;28;20205;-72
2021/10/12 00:34:56;;;;;;;8.25;5.43;;;5.50;99.90;;;;;;5048368;28;20253;-71
2021/10/12 00:37:21;;;;;;;9.90;7.32;;;5.50;99.90;;;;;;5048377;28;20184;-71
2021/10/12 00:39:47;;;;;;;9.15;6.63;;;5.60;99.90;;;;;;5048413;28;20534;-72
2021/10/12 00:42:13;;;;;;;12.27;7.30;;;5.60;99.90;;;;;;5048117;28;20203;-71
2021/10/12 00:44:39;;;;;;;10.73;6.53;;;5.50;99.90;;;;;;5030349;28;20181;-71
2021/10/12 00:47:05;;;;;;;8.57;5.40;;;5.60;99.90;;;;;;5048219;28;20280;-71
2021/10/12 00:49:31;;;;;;;9.77;5.30;;;5.60;99.90;;;;;;5048036;28;20555;-72
2021/10/12 00:51:57;;;;;;;10.25;5.47;;;5.60;99.90;;;;;;5047924;28;20682;-71
2021/10/12 00:54:23;;;;;;;9.35;5.35;;;5.60;99.90;;;;;;5047938;28;20243;-71
2021/10/12 00:56:49;;;;;;;9.68;6.00;;;5.60;99.90;;;;;;5023269;28;20186;-71
2021/10/12 00:59:17;;;;;;;8.60;6.20;;;5.60;99.90;;;;;;5028267;28;20209;-72
2021/10/12 01:01:42;;;;;;;9.98;6.93;;;5.50;99.90;;;;;;5028043;28;20190;-72
2021/10/12 01:04:09;;;;;;;12.50;6.88;;;5.50;99.90;;;;;;5028049;28;20161;-71
2021/10/12 01:06:36;;;;;;;14.63;7.50;;;5.50;99.90;;;;;;5028224;28;20273;-71
2021/10/12 01:09:02;;;;;;;9.43;6.38;;;5.50;99.90;;;;;;5028084;28;20158;-71
2021/10/12 01:11:29;;;;;;;14.30;5.70;;;5.60;99.90;;;;;;5028033;28;20271;-72
2021/10/12 01:13:55;;;;;;;9.30;5.40;;;5.60;99.90;;;;;;5010257;28;20162;-72
2021/10/12 01:16:21;;;;;;;13.27;6.32;;;5.50;99.90;;;;;;5010116;28;20698;-73
2021/10/12 01:19:16;;;;;;;7.75;5.22;;;5.40;99.90;;;;;;5027908;28;20162;-72
2021/10/12 01:21:45;;;;;;;9.40;5.07;;;5.40;99.90;;;;;;5027804;28;20216;-72
2021/10/12 01:24:13;;;;;;;12.15;5.53;;;5.60;99.90;;;;;;5027686;28;20182;-72
2021/10/12 01:26:40;;;;;;;9.30;5.03;;;5.60;99.90;;;;;;5027793;28;20154;-73
2021/10/12 01:29:08;;;;;;;8.52;5.55;;;5.60;99.90;;;;;;5027728;28;20168;-72
2021/10/12 01:31:35;;;;;;;8.65;5.13;;;5.60;99.90;;;;;;5027110;28;20189;-72
2021/10/12 01:34:09;;;;;;;8.70;6.60;;;5.60;99.90;;;;;;5027830;28;20174;-72
2021/10/12 01:36:35;;;;;;;9.57;5.63;;;5.70;99.90;;;;;;5027667;28;20161;-72
2021/10/12 01:39:01;;;;;;;9.52;6.38;;;5.80;99.90;;;;;;5027698;28;20269;-72
2021/10/12 01:41:27;;;;;;;7.43;4.63;;;5.80;99.90;;;;;;5009829;28;20224;-72
2021/10/12 01:43:53;;;;;;;6.93;4.80;;;5.90;99.90;;;;;;5027676;28;20171;-72
2021/10/12 01:46:19;;;;;;;11.70;5.50;;;5.90;99.90;;;;;;5027685;28;20254;-73
2021/10/12 01:48:45;;;;;;;7.97;5.30;;;5.80;99.90;;;;;;5027541;28;20184;-72
2021/10/12 01:51:11;;;;;;;10.77;4.97;;;5.90;99.90;;;;;;5009646;28;20210;-72
2021/10/12 01:53:37;;;;;;;7.55;5.53;;;5.80;99.90;;;;;;5027392;28;20284;-72
2021/10/12 01:56:03;;;;;;;7.20;4.75;;;5.90;99.90;;;;;;5009679;28;20216;-72
2021/10/12 01:58:29;;;;;;;7.82;4.82;;;5.80;99.90;;;;;;5027489;28;20155;-72
2021/10/12 02:00:54;;;;;;;6.28;4.80;;;5.80;99.90;;;;;;5027441;28;20194;-72
2021/10/12 02:03:20;;;;;;;11.65;5.43;;;5.80;99.90;;;;;;5027516;28;20364;-72
2021/10/12 02:05:46;;;;;;;14.60;5.32;;;5.70;99.90;;;;;;5027547;28;20201;-73
2021/10/12 02:08:12;;;;;;;8.65;5.35;;;5.70;99.90;;;;;;5027259;28;20166;-71
2021/10/12 02:10:39;;;;;;;10.20;5.30;;;5.70;99.90;;;;;;5009567;28;20166;-72
2021/10/12 02:13:05;;;;;;;13.80;5.28;;;5.70;99.90;;;;;;5027531;28;20154;-72
2021/10/12 02:15:31;;;;;;;9.93;5.03;;;5.50;99.90;;;;;;5027195;28;20182;-72
2021/10/12 02:17:56;;;;;;;7.15;4.93;;;5.60;99.90;;;;;;5027232;28;20186;-72
2021/10/12 02:20:22;;;;;;;7.05;4.75;;;5.60;99.90;;;;;;5027267;28;20163;-72
2021/10/12 02:22:48;;;;;;;12.50;6.45;;;5.50;99.90;;;;;;5027251;28;20166;-72
2021/10/12 02:25:14;;;;;;;11.82;6.90;;;5.40;99.90;;;;;;5027207;28;20612;-73
2021/10/12 02:27:40;;;;;;;9.48;5.63;;;5.30;99.90;;;;;;5009424;28;20186;-72
2021/10/12 02:30:08;;;;;;;8.85;5.55;;;5.20;99.90;;;;;;5027099;28;20173;-72
2021/10/12 02:32:34;;;;;;;14.35;5.22;;;5.10;99.90;;;;;;5058469;28;20201;-73
2021/10/12 02:35:00;;;;;;;9.25;5.15;;;5.10;99.90;;;;;;5066800;28;20188;-74
2021/10/12 02:37:26;;;;;;;9.77;5.22;;;5.10;99.90;;;;;;5048751;28;20165;-73
2021/10/12 02:39:52;;;;;;;11.07;4.70;;;5.00;99.90;;;;;;5048899;28;20165;-72
2021/10/12 02:42:18;;;;;;;6.82;4.07;;;4.90;99.90;;;;;;5068995;28;20207;-73
2021/10/12 02:44:44;;;;;;;8.73;4.60;;;4.90;99.90;;;;;;5070147;28;20157;-72
2021/10/12 02:47:10;;;;;;;11.68;4.43;;;4.80;99.90;;;;;;5070317;28;20272;-71
2021/10/12 02:49:36;;;;;;;8.32;4.15;;;4.90;99.90;;;;;;5052237;28;20165;-74
2021/10/12 02:52:03;;;;;;;8.60;4.43;;;4.90;99.90;;;;;;5069944;28;20228;-72
2021/10/12 02:54:28;;;;;;;6.57;4.43;;;5.00;99.90;;;;;;5070062;28;20238;-73
2021/10/12 02:56:54;;;;;;;12.13;4.88;;;5.00;99.90;;;;;;5070144;28;20148;-72
2021/10/12 02:59:20;;;;;;;7.00;4.32;;;5.00;99.90;;;;;;5051931;28;20177;-72
2021/10/12 03:01:46;;;;;;;6.03;4.22;;;5.00;99.90;;;;;;5069940;28;20204;-72
2021/10/12 03:04:14;;;;;;;7.90;4.03;;;5.10;99.90;;;;;;5069991;28;20165;-73
2021/10/12 03:06:41;;;;;;;7.93;3.90;;;5.10;99.90;;;;;;5051801;28;20184;-72
2021/10/12 03:09:07;;;;;;;9.02;3.92;;;5.10;99.90;;;;;;5051872;28;20169;-72
2021/10/12 03:11:33;;;;;;;6.35;3.53;;;5.20;99.90;;;;;;5069820;28;20188;-72
2021/10/12 03:13:59;;;;;;;7.38;4.40;;;5.10;99.90;;;;;;5069805;28;20191;-72
2021/10/12 03:16:25;;;;;;;6.10;3.47;;;5.20;99.90;;;;;;5069685;28;20180;-73
2021/10/12 03:18:51;;;;;;;6.97;3.70;;;5.20;99.90;;;;;;5051660;28;20168;-73
2021/10/12 03:21:18;;;;;;;8.25;3.47;;;5.20;99.90;;;;;;5051611;28;20254;-72
2021/10/12 03:23:44;;;;;;;8.55;3.80;;;5.10;99.90;;;;;;5069574;28;20173;-72
2021/10/12 03:26:10;;;;;;;7.88;3.55;;;5.10;99.90;;;;;;5051594;28;20168;-72
2021/10/12 03:28:36;;;;;;;6.40;3.63;;;5.20;99.90;;;;;;5051475;28;20645;-72
2021/10/12 03:31:02;;;;;;;9.02;3.88;;;5.20;99.90;;;;;;5069385;28;20219;-72
2021/10/12 03:33:28;;;;;;;7.50;4.70;;;5.20;99.90;;;;;;5069512;28;20161;-72
2021/10/12 03:35:56;;;;;;;7.45;3.42;;;5.10;99.90;;;;;;5051141;28;20188;-72
2021/10/12 03:38:26;;;;;;;9.07;4.47;;;4.90;99.90;;;;;;5051281;28;20222;-72
2021/10/12 03:40:54;;;;;;;6.10;4.43;;;5.00;99.90;;;;;;5051040;28;20192;-74
2021/10/12 03:43:21;;;;;;;6.70;4.32;;;4.90;99.90;;;;;;5050937;28;20176;-74
2021/10/12 03:45:48;;;;;;;6.78;4.30;;;4.90;99.90;;;;;;5069152;28;20175;-72
2021/10/12 03:48:14;;;;;;;8.32;4.93;;;4.90;99.90;;;;;;5069147;28;20157;-72
2021/10/12 03:50:40;;;;;;;6.70;4.03;;;4.90;99.90;;;;;;5068898;28;20219;-72
2021/10/12 03:53:06;;;;;;;13.27;5.13;;;4.90;99.90;;;;;;5068069;28;20244;-71
2021/10/12 03:55:32;;;;;;;7.55;4.13;;;4.90;99.90;;;;;;5068934;28;20246;-73
2021/10/12 03:57:58;;;;;;;6.03;4.97;;;4.90;99.90;;;;;;5050722;28;20197;-72
2021/10/12 04:00:24;;;;;;;12.80;3.90;;;5.00;99.90;;;;;;5068499;28;20181;-72
2021/10/12 04:02:49;;;;;;;6.05;4.30;;;5.00;99.90;;;;;;5068478;28;20185;-73
2021/10/12 04:05:15;;;;;;;10.63;4.50;;;5.10;99.90;;;;;;5068769;28;20157;-71
2021/10/12 04:07:42;;;;;;;6.28;3.83;;;5.20;99.90;;;;;;5050796;28;20610;-72
2021/10/12 04:10:09;;;;;;;7.55;4.00;;;5.30;99.90;;;;;;5068902;28;20177;-73
2021/10/12 04:12:35;;;;;;;6.50;3.63;;;5.40;99.90;;;;;;5068660;28;20223;-72
2021/10/12 04:15:01;;;;;;;6.60;4.30;;;5.30;99.90;;;;;;5050394;28;20657;-73
2021/10/12 04:17:26;;;;;;;7.60;3.90;;;5.40;99.90;;;;;;5068543;28;20246;-72
2021/10/12 04:19:52;;;;;;;8.45;4.55;;;5.40;99.90;;;;;;5068693;28;20156;-73
2021/10/12 04:22:18;;;;;;;6.65;5.00;;;5.50;99.90;;;;;;5068313;28;20192;-72
2021/10/12 04:24:44;;;;;;;8.57;5.13;;;5.30;99.90;;;;;;5068226;28;20252;-72
2021/10/12 04:27:10;;;;;;;11.82;5.60;;;5.40;99.90;;;;;;5068254;28;20217;-72
2021/10/12 04:29:36;;;;;;;10.82;6.70;;;5.50;99.90;;;;;;5068104;28;20171;-72
2021/10/12 04:32:03;;;;;;;9.20;5.05;;;5.40;99.90;;;;;;5067969;28;20641;-71
2021/10/12 04:34:29;;;;;;;6.93;5.60;;;5.40;99.90;;;;;;5050121;28;20200;-71
2021/10/12 04:36:57;;;;;;;10.25;6.72;;;5.50;99.90;;;;;;5068201;28;20208;-72
2021/10/12 04:39:23;;;;;;;11.27;7.22;;;5.50;99.90;;;;;;5049923;28;20172;-72
2021/10/12 04:41:49;;;;;;;13.40;6.72;;;5.60;99.90;;;;;;5067763;28;20196;-71
2021/10/12 04:44:16;;;;;;;15.25;6.47;;;5.70;99.90;;;;;;5049529;28;20165;-71
2021/10/12 04:46:42;;;;;;;14.82;7.78;;;5.80;99.90;;;;;;5067803;28;20197;-71
2021/10/12 04:49:08;;;;;;;9.18;6.35;;;5.80;99.90;;;;;;5067715;28;20242;-71
2021/10/12 04:51:34;;;;;;;11.13;7.10;;;5.80;99.90;;;;;;5067466;28;20247;-71
2021/10/12 04:54:02;;;;;;;18.15;6.25;;;5.80;99.90;;;;;;5049685;28;20171;-71
2021/10/12 04:56:29;;;;;;;11.98;7.18;;;5.80;99.90;;;;;;5067552;28;20259;-71
2021/10/12 04:58:54;;;;;;;12.77;7.45;;;5.70;99.90;;;;;;5067533;28;20240;-72
2021/10/12 05:01:20;;;;;;;12.88;7.28;;;5.60;99.90;;;;;;5049173;28;20188;-71
2021/10/12 05:03:46;;;;;;;9.43;6.60;;;5.50;99.90;;;;;;5049310;28;20164;-71
2021/10/12 05:06:12;;;;;;;11.35;7.10;;;5.40;99.90;;;;;;5067474;28;20157;-71
2021/10/12 05:08:38;;;;;;;13.63;7.22;;;5.30;99.90;;;;;;5067560;28;20192;-72
2021/10/12 05:11:04;;;;;;;11.43;7.15;;;5.40;99.90;;;;;;5067429;28;20196;-72
2021/10/12 05:13:30;;;;;;;18.38;7.75;;;5.30;99.90;;;;;;5049131;28;20164;-72
2021/10/12 05:15:58;;;;;;;11.93;7.38;;;5.20;99.90;;;;;;5067119;28;20185;-71
2021/10/12 05:18:30;;;;;;;12.00;6.82;;;5.20;99.90;;;;;;5067235;28;20153;-71
2021/10/12 05:20:56;;;;;;;11.27;7.40;;;5.10;99.90;;;;;;5049032;28;20199;-70
2021/10/12 05:23:22;;;;;;;9.38;6.20;;;5.10;99.90;;;;;;5067337;28;20157;-72
2021/10/12 05:25:49;;;;;;;15.85;6.47;;;5.20;99.90;;;;;;5067081;28;20169;-72
2021/10/12 05:28:17;;;;;;;12.75;6.40;;;5.10;99.90;;;;;;5067386;28;20161;-72
2021/10/12 05:30:44;;;;;;;15.15;7.05;;;5.10;99.90;;;;;;5066896;28;20160;-71
2021/10/12 05:33:14;;;;;;;11.60;6.78;;;5.10;99.90;;;;;;5049410;28;20307;-71
2021/10/12 05:35:42;;;;;;;14.18;5.45;;;5.10;99.90;;;;;;5067125;28;20188;-72
2021/10/12 05:38:07;;;;;;;11.65;6.63;;;4.90;99.90;;;;;;5067323;28;20153;-73
2021/10/12 05:40:34;;;;;;;13.32;7.55;;;4.90;99.90;;;;;;5048910;28;20167;-70
2021/10/12 05:43:00;;;;;;;14.90;7.13;;;4.90;99.90;;;;;;5066474;28;20163;-71
2021/10/12 05:45:26;;;;;;;11.00;6.93;;;5.00;99.90;;;;;;5067192;28;20617;-72
2021/10/12 05:47:52;;;;;;;9.85;6.88;;;5.10;99.90;;;;;;5067002;28;20169;-71
2021/10/12 05:50:18;;;;;;;10.57;7.93;;;5.20;99.90;;;;;;5067058;28;20260;-71
2021/10/12 05:58:48;;;;;;;14.20;8.65;;;5.50;99.90;;;;;;4985435;28;20242;-71
2021/10/12 06:01:15;;;;;;;11.90;7.25;;;5.70;99.90;;;;;;4985530;28;20356;-72
2021/10/12 06:03:41;;;;;;;12.65;7.72;;;5.70;99.90;;;;;;4985880;28;20182;-72
2021/10/12 06:06:07;;;;;;;10.18;6.85;;;5.90;99.90;;;;;;4969182;28;20664;-73
2021/10/12 06:08:36;;;;;;;10.38;6.63;;;6.10;99.90;;;;;;4969438;28;20205;-72
2021/10/12 06:11:04;;;;;;;10.00;5.32;;;6.20;99.90;;;;;;4985871;28;20241;-72
2021/10/12 06:13:31;;;;;;;10.48;5.75;;;6.40;99.90;;;;;;4969330;28;20315;-73
2021/10/12 06:15:57;;;;;;;9.15;4.95;;;6.60;99.90;;;;;;4986114;28;20191;-73
2021/10/12 06:18:24;;;;;;;6.85;4.15;;;6.80;99.90;;;;;;4989272;28;20183;-72
2021/10/12 06:20:50;;;;;;;9.02;3.38;;;7.10;99.90;;;;;;4989290;28;20292;-72
2021/10/12 06:23:18;;;;;;;6.13;3.65;;;7.30;99.90;;;;;;4972956;28;20291;-71
2021/10/12 06:25:45;;;;;;;5.35;2.80;;;7.50;99.90;;;;;;4989167;28;20191;-71
2021/10/12 06:28:13;;;;;;;10.02;3.67;;;7.70;99.90;;;;;;4989347;28;20251;-71
2021/10/12 06:30:40;;;;;;;7.80;3.00;;;7.80;99.90;;;;;;4989194;28;20203;-71
2021/10/12 06:33:06;;;;;;;8.57;3.83;;;7.90;99.90;;;;;;5064149;28;20206;-71
2021/10/12 06:35:33;;;;;;;6.82;3.70;;;8.00;99.90;;;;;;5090364;28;20544;-72
2021/10/12 06:38:00;;;;;;;10.65;5.38;;;8.00;99.90;;;;;;5089061;28;20231;-71
2021/10/12 06:40:28;;;;;;;11.73;5.60;;;8.10;99.90;;;;;;5090636;28;20152;-71
2021/10/12 06:42:55;;;;;;;11.43;6.80;;;7.90;99.90;;;;;;5089267;28;20286;-72
2021/10/12 06:45:22;;;;;;;11.32;5.32;;;7.60;99.90;;;;;;5090463;28;20171;-72
2021/10/12 06:47:49;;;;;;;10.82;6.53;;;7.60;99.90;;;;;;5089255;28;20237;-72
2021/10/12 06:50:16;;;;;;;11.05;6.45;;;7.40;99.90;;;;;;5090322;28;20602;-72
2021/10/12 06:52:42;;;;;;;17.15;6.90;;;7.30;99.90;;;;;;5088572;28;20277;-72
2021/10/12 06:55:09;;;;;;;9.88;5.57;;;7.20;99.90;;;;;;5090211;28;20192;-72
2021/10/12 06:57:38;;;;;;;12.52;5.88;;;7.20;99.90;;;;;;5078260;28;20180;-71
2021/10/12 07:00:06;;;;;;;21.13;7.05;;;7.20;99.90;;;;;;5088762;28;20174;-71
2021/10/12 07:02:32;;;;;;;11.40;6.60;;;7.20;99.90;;;;;;5088570;28;20196;-71
2021/10/12 07:04:58;;;;;;;14.57;6.75;;;7.10;99.90;;;;;;5090233;28;20164;-71
2021/10/12 07:07:24;;;;;;;13.35;6.20;;;7.10;99.90;;;;;;5090130;28;20312;-71
2021/10/12 07:09:50;;;;;;;12.35;6.00;;;7.10;99.90;;;;;;5090225;28;20160;-71
2021/10/12 07:12:16;;;;;;;18.17;6.75;;;7.00;99.90;;;;;;5088415;28;20203;-72
2021/10/12 07:14:42;;;;;;;10.68;6.75;;;7.00;99.90;;;;;;5073466;28;20328;-72
2021/10/12 07:17:08;;;;;;;14.93;7.07;;;7.00;99.90;;;;;;5068455;28;20264;-71
2021/10/12 07:19:34;;;;;;;9.93;6.78;;;7.00;99.90;;;;;;5068288;28;20184;-71
2021/10/12 07:22:00;;;;;;;14.60;6.30;;;7.10;99.90;;;;;;5069284;28;20196;-72
2021/10/12 07:24:26;;;;;;;10.07;5.82;;;7.00;99.90;;;;;;5069371;28;20164;-73
2021/10/12 07:26:54;;;;;;;9.98;5.97;;;7.10;99.90;;;;;;5063778;28;20184;-73
2021/10/12 07:29:22;;;;;;;14.05;7.05;;;7.20;99.90;;;;;;5055957;28;20168;-72
2021/10/12 07:31:48;;;;;;;17.52;6.88;;;7.30;99.90;;;;;;5048635;28;20189;-72
2021/10/12 07:34:15;;;;;;;10.23;6.65;;;7.40;99.90;;;;;;5067171;28;20176;-71
2021/10/12 07:36:42;;;;;;;8.57;6.07;;;7.50;99.90;;;;;;5067507;28;20179;-72
2021/10/12 07:39:08;;;;;;;10.00;5.80;;;7.60;99.90;;;;;;5068737;28;20209;-72
2021/10/12 07:41:35;;;;;;;8.00;5.05;;;7.70;99.90;;;;;;5068705;28;20232;-72
2021/10/12 07:44:02;;;;;;;8.65;5.38;;;7.80;99.90;;;;;;5065527;28;20248;-72
2021/10/12 07:46:28;;;;;;;8.65;5.47;;;7.70;99.90;;;;;;5063811;28;20173;-72
2021/10/12 07:48:58;;;;;;;7.18;5.38;;;7.90;99.90;;;;;;5048768;28;20208;-72
2021/10/12 07:51:24;;;;;;;15.27;5.63;;;8.00;99.90;;;;;;5047312;28;20216;-72
2021/10/12 07:53:51;;;;;;;12.25;5.75;;;7.90;99.90;;;;;;5037560;28;20224;-72
2021/10/12 07:56:35;;;;;;;15.68;5.57;;;7.90;99.90;;;;;;5028763;28;20200;-70
2021/10/12 07:59:01;;;;;;;9.13;5.07;;;8.00;99.90;;;;;;5026671;28;20256;-70
2021/10/12 08:01:27;;;;;;;21.48;7.07;;;8.00;99.90;;;;;;5048243;28;20172;-70
2021/10/12 08:03:53;;;;;;;7.85;5.65;;;8.00;99.90;;;;;;5030537;28;20185;-69
2021/10/12 08:06:19;;;;;;;18.77;7.87;;;8.00;99.90;;;;;;5028784;28;20449;-70
2021/10/12 08:08:45;;;;;;;15.68;6.63;;;7.90;99.90;;;;;;5047293;28;20271;-71
2021/10/12 08:11:11;;;;;;;9.02;5.60;;;8.00;99.90;;;;;;5048280;28;20211;-71
2021/10/12 08:13:37;;;;;;;13.85;6.60;;;8.00;99.90;;;;;;5052336;28;20180;-71
2021/10/12 08:16:09;;;;;;;11.48;5.35;;;8.00;99.90;;;;;;5047191;28;20272;-69
2021/10/12 08:18:36;;;;;;;7.72;4.75;;;8.10;99.90;;;;;;5021735;28;20201;-70
2021/10/12 08:21:02;;;;;;;12.65;6.03;;;8.10;99.90;;;;;;5034255;28;20158;-71
2021/10/12 08:23:28;;;;;;;8.38;5.70;;;8.20;99.90;;;;;;5029780;28;20179;-71
2021/10/12 08:25:54;;;;;;;9.38;5.88;;;8.30;99.90;;;;;;5018850;28;20197;-72
2021/10/12 08:28:20;;;;;;;10.65;5.10;;;8.40;99.90;;;;;;5028294;28;20166;-72
2021/10/12 08:30:46;;;;;;;9.75;5.75;;;8.40;99.90;;;;;;5010623;28;20190;-71
2021/10/12 08:33:12;;;;;;;11.93;5.43;;;8.50;99.90;;;;;;5011935;28;20208;-72
2021/10/12 08:35:37;;;;;;;11.73;5.00;;;8.50;99.90;;;;;;5030171;28;20193;-71
2021/10/12 08:38:03;;;;;;;8.77;5.20;;;8.50;99.90;;;;;;5029830;28;20199;-71
2021/10/12 08:40:31;;;;;;;12.75;4.88;;;8.50;99.90;;;;;;5047577;28;20349;-71
2021/10/12 08:42:58;;;;;;;6.40;4.88;;;8.60;99.90;;;;;;5047851;28;20154;-71
2021/10/12 08:45:24;;;;;;;17.55;4.53;;;8.60;99.90;;;;;;5029970;28;20165;-71
2021/10/12 08:47:51;;;;;;;12.70;5.93;;;8.60;99.90;;;;;;5047702;28;20172;-72
2021/10/12 08:50:22;;;;;;;9.95;5.07;;;8.60;99.90;;;;;;5028919;28;20193;-71
2021/10/12 08:52:49;;;;;;;15.15;5.28;;;8.70;99.90;;;;;;5029420;28;20336;-71
2021/10/12 08:55:15;;;;;;;14.00;5.43;;;8.70;99.90;;;;;;5047574;28;20199;-72
2021/10/12 08:57:45;;;;;;;15.82;6.15;;;8.80;99.90;;;;;;5029717;28;20200;-72
2021/10/12 09:00:12;;;;;;;18.20;6.93;;;8.50;99.90;;;;;;5047748;28;20201;-76
2021/10/12 09:02:57;;;;;;;16.73;5.90;;;8.30;99.90;;;;;;5029705;28;20264;-77
2021/10/12 09:05:25;;;;;;;12.75;6.82;;;8.30;99.90;;;;;;5028006;28;20253;-77
2021/10/12 09:07:51;;;;;;;12.30;6.10;;;8.30;99.90;;;;;;5027921;28;20182;-77
2021/10/12 09:10:21;;;;;;;14.05;5.97;;;8.30;99.90;;;;;;5010164;28;20181;-77
2021/10/12 09:12:49;;;;;;;17.63;6.10;;;8.30;99.90;;;;;;5027924;28;20220;-72
2021/10/12 09:15:17;;;;;;;19.15;6.75;;;8.30;99.90;;;;;;5009880;28;20197;-70
2021/10/12 09:17:49;;;;;;;8.90;4.78;;;8.40;99.90;;;;;;5013127;28;20202;-70
2021/10/12 09:20:15;;;;;;;9.40;5.47;;;8.30;99.90;;;;;;5009905;28;20169;-70
2021/10/12 09:23:04;;;;;;;13.63;6.10;;;8.20;99.90;;;;;;5046950;28;20205;-71
2021/10/12 09:25:44;;;;;;;9.48;6.07;;;8.30;99.90;;;;;;5057485;28;20268;-71
2021/10/12 09:28:25;;;;;;;15.52;6.65;;;8.30;99.90;;;;;;5067211;28;20175;-71
2021/10/12 09:30:54;;;;;;;13.95;6.22;;;8.40;99.90;;;;;;5049143;28;20171;-70
2021/10/12 09:33:20;;;;;;;17.75;6.30;;;8.50;99.90;;;;;;5048951;28;20227;-73
2021/10/12 09:35:46;;;;;;;11.70;6.10;;;8.50;99.90;;;;;;5032039;28;20212;-72
2021/10/12 09:38:14;;;;;;;12.10;6.38;;;8.50;99.90;;;;;;5047243;28;20168;-72
2021/10/12 09:40:43;;;;;;;10.95;6.18;;;8.50;99.90;;;;;;5029302;28;20176;-72
2021/10/12 09:43:09;;;;;;;12.43;5.72;;;8.70;99.90;;;;;;5047171;28;20154;-71
2021/10/12 09:45:37;;;;;;;11.00;5.22;;;8.80;99.90;;;;;;5029126;28;20249;-72
2021/10/12 09:48:30;;;;;;;10.68;5.75;;;8.90;99.90;;;;;;5047388;28;20162;-70
2021/10/12 09:51:13;;;;;;;9.65;5.28;;;8.70;99.90;;;;;;5025863;28;20181;-71
2021/10/12 09:53:43;;;;;;;6.63;5.22;;;8.60;99.90;;;;;;5069273;28;20299;-76
2021/10/12 09:56:10;;;;;;;17.25;6.10;;;8.80;99.90;;;;;;5069871;28;20417;-77
2021/10/12 09:58:37;;;;;;;15.75;6.25;;;8.90;99.90;;;;;;5069806;28;20188;-76
2021/10/12 10:01:05;;;;;;;10.30;5.10;;;9.00;99.90;;;;;;5071080;28;20160;-78
2021/10/12 10:03:32;;;;;;;11.63;5.63;;;9.20;99.90;;;;;;5070859;28;20222;-77
2021/10/12 10:06:02;;;;;;;10.27;5.18;;;9.30;99.90;;;;;;5069366;28;20203;-76
2021/10/12 10:08:29;;;;;;;8.88;5.50;;;9.30;99.90;;;;;;5070902;28;20188;-76
2021/10/12 10:10:57;;;;;;;13.25;5.22;;;9.40;99.90;;;;;;5057337;28;20260;-77
2021/10/12 10:13:26;;;;;;;10.32;4.60;;;9.50;99.90;;;;;;5079442;28;20214;-75
2021/10/12 10:15:54;;;;;;;7.40;4.45;;;9.60;99.90;;;;;;5088841;28;20195;-74
2021/10/12 10:18:21;;;;;;;7.72;4.53;;;9.70;99.90;;;;;;5072153;28;20211;-76
2021/10/12 10:20:53;;;;;;;8.77;5.47;;;9.60;99.90;;;;;;5068907;28;20172;-77
2021/10/12 10:23:47;;;;;;;6.57;4.50;;;9.60;99.90;;;;;;5070031;28;20223;-76
2021/10/12 10:26:23;;;;;;;6.05;3.75;;;9.60;99.90;;;;;;5085156;28;20172;-76
2021/10/12 10:28:51;;;;;;;7.25;4.40;;;9.70;99.90;;;;;;5088902;28;20168;-75
2021/10/12 10:31:36;;;;;;;9.48;5.18;;;9.70;99.90;;;;;;5068630;28;20195;-76
2021/10/12 10:34:36;;;;;;;7.95;5.13;;;10.00;99.90;;;;;;5070163;28;20216;-76
2021/10/12 10:37:17;;;;;;;8.77;4.63;;;10.00;99.90;;;;;;5070235;28;20182;-77
2021/10/12 10:39:47;;;;;;;12.05;4.40;;;10.20;99.90;;;;;;5068784;28;20230;-76
2021/10/12 10:42:43;;;;;;;10.73;4.22;;;10.30;99.90;;;;;;5066064;28;20236;-77
2021/10/12 10:45:12;;;;;;;10.32;4.82;;;10.30;99.90;;;;;;5068190;28;20219;-76
2021/10/12 10:47:40;;;;;;;12.30;5.63;;;10.20;99.90;;;;;;5068585;28;20169;-76
2021/10/12 10:50:10;;;;;;;11.32;5.28;;;10.20;99.90;;;;;;5055182;28;20235;-76
2021/10/12 10:52:45;;;;;;;12.07;5.80;;;10.20;99.90;;;;;;5046187;28;20217;-76
2021/10/12 10:55:18;;;;;;;11.05;5.35;;;10.30;99.90;;;;;;5049820;28;20213;-75
2021/10/12 10:58:05;;;;;;;9.10;4.68;;;10.30;99.90;;;;;;5049792;28;20241;-76
2021/10/12 11:00:45;;;;;;;12.10;5.28;;;10.50;99.90;;;;;;5069963;28;20172;-76
2021/10/12 11:03:32;;;;;;;12.38;4.00;;;10.40;99.90;;;;;;5068596;28;20268;-76
2021/10/12 11:06:00;;;;;;;6.40;3.70;;;10.40;99.90;;;;;;5069993;28;20215;-76
2021/10/12 11:08:28;;;;;;;7.47;4.43;;;10.60;99.90;;;;;;5068521;28;20191;-76
2021/10/12 11:10:58;;;;;;;4.63;3.60;;;10.70;99.90;;;;;;5068716;28;20176;-76
2021/10/12 11:13:34;;;;;;;6.30;3.67;;;11.10;99.90;;;;;;5069986;28;20161;-72
2021/10/12 11:16:02;;;;;;;5.15;3.65;;;11.10;99.90;;;;;;5069654;28;20199;-72
2021/10/12 11:18:28;;;;;;;6.10;3.15;;;11.40;99.90;;;;;;5068272;28;20222;-70
2021/10/12 11:20:57;;;;;;;6.05;3.63;;;11.80;99.90;;;;;;5064232;28;20195;-72
2021/10/12 11:23:28;;;;;;;8.10;3.20;;;12.00;99.90;;;;;;5067645;28;20200;-71
2021/10/12 11:26:18;;;;;;;6.28;3.38;;;12.20;99.90;;;;;;5079667;28;20196;-71
2021/10/12 11:29:03;;;;;;;3.40;2.75;;;12.50;99.90;;;;;;5087374;28;20251;-71
2021/10/12 11:31:31;;;;;;;5.43;3.22;;;12.70;99.90;;;;;;5088171;28;20232;-71
2021/10/12 11:34:02;;;;;;;5.60;2.80;;;12.80;99.90;;;;;;5089529;28;20171;-70
2021/10/12 11:36:31;;;;;;;8.38;3.38;;;12.70;99.90;;;;;;5071630;28;20212;-71
2021/10/12 11:38:58;;;;;;;6.35;2.92;;;12.80;99.90;;;;;;5063702;28;20246;-71
2021/10/12 11:41:31;;;;;;;8.65;3.78;;;12.80;99.90;;;;;;5049056;28;20257;-71
2021/10/12 11:44:00;;;;;;;7.18;3.72;;;12.90;99.90;;;;;;5049295;28;20163;-71
2021/10/12 11:46:35;;;;;;;5.60;3.35;;;12.90;99.90;;;;;;5047597;28;20193;-71
2021/10/12 11:49:12;;;;;;;5.18;2.92;;;13.00;99.90;;;;;;5047513;28;20254;-73
2021/10/12 11:51:39;;;;;;;5.63;2.60;;;13.30;99.90;;;;;;5047837;28;20171;-71
2021/10/12 11:54:06;;;;;;;11.23;4.40;;;13.40;99.90;;;;;;5011387;28;20220;-71
2021/10/12 11:56:35;;;;;;;9.95;3.00;;;13.30;99.90;;;;;;5028575;28;20197;-71
2021/10/12 11:59:04;;;;;;;6.65;2.58;;;13.00;99.90;;;;;;5011185;28;20186;-71
2021/10/12 12:01:44;;;;;;;11.00;3.85;;;12.80;99.90;;;;;;5028602;28;20182;-71
2021/10/12 12:04:11;;;;;;;6.75;3.35;;;12.50;99.90;;;;;;5028870;28;20172;-70
2021/10/12 12:06:43;;;;;;;9.73;3.28;;;12.50;99.90;;;;;;5028444;28;20221;-71
2021/10/12 12:09:22;;;;;;;9.15;3.22;;;12.60;99.90;;;;;;5028943;28;20170;-70
2021/10/12 12:11:49;;;;;;;12.38;3.78;;;12.80;99.90;;;;;;5028603;28;20261;-70
2021/10/12 12:14:21;;;;;;;4.82;3.05;;;13.00;99.90;;;;;;5010750;28;20166;-72
2021/10/12 12:16:46;;;;;;;5.90;3.13;;;13.10;99.90;;;;;;5011268;28;20216;-69
2021/10/12 12:19:23;;;;;;;8.45;4.05;;;13.30;99.90;;;;;;5030892;28;20165;-70
2021/10/12 12:21:50;;;;;;;7.82;3.33;;;13.30;99.90;;;;;;5048940;28;20172;-70
2021/10/12 12:24:22;;;;;;;7.18;2.67;;;13.00;99.90;;;;;;5048965;28;20213;-70
2021/10/12 12:27:04;;;;;;;7.03;2.30;;;13.00;99.90;;;;;;5050219;28;20215;-71
2021/10/12 12:29:30;;;;;;;4.55;2.65;;;12.70;99.90;;;;;;5050255;28;20173;-70
2021/10/12 12:31:57;;;;;;;6.10;2.55;;;12.60;99.90;;;;;;5068230;28;20223;-70
2021/10/12 12:34:35;;;;;;;2.13;1.90;;;12.80;99.90;;;;;;5050190;28;20169;-72
2021/10/12 12:37:04;;;;;;;5.38;3.00;;;12.60;99.90;;;;;;5034325;28;20211;-70
2021/10/12 12:39:34;;;;;;;5.47;3.30;;;12.70;99.90;;;;;;5028592;28;20186;-71
2021/10/12 12:42:00;;;;;;;4.97;3.45;;;12.80;99.90;;;;;;5047874;28;20169;-71
2021/10/12 12:44:25;;;;;;;4.25;2.58;;;12.90;99.90;;;;;;5030133;28;20162;-71
2021/10/12 12:47:03;;;;;;;9.73;3.33;;;12.90;99.90;;;;;;5029919;28;20252;-72
2021/10/12 12:49:29;;;;;;;5.78;3.40;;;12.80;99.90;;;;;;5029840;28;20168;-71
2021/10/12 12:51:55;;;;;;;5.88;2.80;;;12.90;99.90;;;;;;5047442;28;20233;-71
2021/10/12 12:54:43;;;;;;;8.95;3.22;;;12.80;99.90;;;;;;5029770;28;20295;-71
2021/10/12 12:57:17;;;;;;;7.05;2.95;;;12.90;99.90;;;;;;5047611;28;20158;-71
2021/10/12 12:59:45;;;;;;;5.95;2.65;;;13.00;99.90;;;;;;5029812;28;20173;-71
2021/10/12 13:02:22;;;;;;;4.22;2.72;;;13.00;99.90;;;;;;5028953;28;20184;-72